JJP334 ROAH-RJAA
Flight info
| Callsign | JJP334 |
|---|---|
| Flight time | N/A |
| Altitude | 37000 |
| Route | YUGAF AMAMI SHIBK Y57 YULIA Y89 GUPER Y81 RUTAS |
| Aircraft | A320/M-SDE3FGHIRWY/LB1 |
Departure
| Time | 2026-04-21 03:44 |
|---|---|
| Airport | Naha International Airport (ROAH) |
Arrival
| Time | N/A |
|---|---|
| Airport | Narita International Airport (RJAA) |
| Time | Latitude | Longitude | Altitude | Speed | Heading |
|---|---|---|---|---|---|
| 2026-04-21 03:23 | 26.20547 | 127.64859 | 21 ft | 0 kts | 132° |
| 2026-04-21 03:34 | 26.20549 | 127.64857 | 21 ft | 2 kts | 132° |
| 2026-04-21 03:34 | 26.20561 | 127.64842 | 21 ft | 3 kts | 132° |
| 2026-04-21 03:34 | 26.20575 | 127.64826 | 20 ft | 3 kts | 128° |
| 2026-04-21 03:34 | 26.20586 | 127.64807 | 20 ft | 3 kts | 117° |
| 2026-04-21 03:35 | 26.20595 | 127.64787 | 19 ft | 3 kts | 110° |
| 2026-04-21 03:35 | 26.20601 | 127.64765 | 18 ft | 3 kts | 114° |
| 2026-04-21 03:35 | 26.20610 | 127.64748 | 17 ft | 3 kts | 155° |
| 2026-04-21 03:35 | 26.20616 | 127.64745 | 17 ft | 0 kts | 178° |
| 2026-04-21 03:38 | 26.20613 | 127.64745 | 17 ft | 2 kts | 177° |
| 2026-04-21 03:38 | 26.20590 | 127.64746 | 17 ft | 4 kts | 180° |
| 2026-04-21 03:38 | 26.20556 | 127.64747 | 19 ft | 6 kts | 178° |
| 2026-04-21 03:39 | 26.20511 | 127.64750 | 19 ft | 7 kts | 177° |
| 2026-04-21 03:39 | 26.20452 | 127.64753 | 18 ft | 10 kts | 178° |
| 2026-04-21 03:39 | 26.20366 | 127.64757 | 18 ft | 16 kts | 177° |
| 2026-04-21 03:39 | 26.20246 | 127.64762 | 17 ft | 19 kts | 179° |
| 2026-04-21 03:40 | 26.20111 | 127.64770 | 19 ft | 20 kts | 178° |
| 2026-04-21 03:40 | 26.20011 | 127.64752 | 17 ft | 14 kts | 207° |
| 2026-04-21 03:40 | 26.19910 | 127.64694 | 16 ft | 19 kts | 206° |
| 2026-04-21 03:40 | 26.19784 | 127.64625 | 16 ft | 22 kts | 204° |
| 2026-04-21 03:41 | 26.19628 | 127.64585 | 17 ft | 25 kts | 181° |
| 2026-04-21 03:41 | 26.19447 | 127.64594 | 16 ft | 27 kts | 177° |
| 2026-04-21 03:41 | 26.19255 | 127.64603 | 18 ft | 28 kts | 176° |
| 2026-04-21 03:41 | 26.19052 | 127.64614 | 18 ft | 30 kts | 178° |
| 2026-04-21 03:42 | 26.18836 | 127.64622 | 19 ft | 32 kts | 177° |
| 2026-04-21 03:42 | 26.18626 | 127.64634 | 17 ft | 22 kts | 177° |
| 2026-04-21 03:42 | 26.18535 | 127.64654 | 17 ft | 11 kts | 158° |
| 2026-04-21 03:42 | 26.18500 | 127.64633 | 16 ft | 7 kts | 284° |
| 2026-04-21 03:43 | 26.18542 | 127.64633 | 18 ft | 8 kts | 11° |
| 2026-04-21 03:43 | 26.18609 | 127.64633 | 17 ft | 15 kts | 358° |
| 2026-04-21 03:43 | 26.18961 | 127.64617 | 18 ft | 95 kts | 358° |
| 2026-04-21 03:43 | 26.19875 | 127.64573 | 28 ft | 163 kts | 357° |
| 2026-04-21 03:44 | 26.21019 | 127.64509 | 894 ft | 164 kts | 355° |
| 2026-04-21 03:44 | 26.22181 | 127.64436 | 1850 ft | 172 kts | 357° |
| 2026-04-21 03:44 | 26.23412 | 127.64389 | 2573 ft | 183 kts | 358° |
| 2026-04-21 03:44 | 26.24759 | 127.64338 | 2857 ft | 206 kts | 359° |
| 2026-04-21 03:45 | 26.26252 | 127.64026 | 3187 ft | 232 kts | 340° |
| 2026-04-21 03:45 | 26.27777 | 127.63191 | 3675 ft | 254 kts | 331° |
| 2026-04-21 03:45 | 26.29318 | 127.62155 | 4500 ft | 263 kts | 329° |
| 2026-04-21 03:45 | 26.30880 | 127.61069 | 5395 ft | 267 kts | 329° |
| 2026-04-21 03:46 | 26.32471 | 127.59977 | 6285 ft | 271 kts | 330° |
| 2026-04-21 03:46 | 26.34081 | 127.58903 | 7134 ft | 276 kts | 330° |
| 2026-04-21 03:46 | 26.35755 | 127.57816 | 7975 ft | 281 kts | 331° |
| 2026-04-21 03:46 | 26.37454 | 127.56732 | 8725 ft | 284 kts | 331° |
| 2026-04-21 03:47 | 26.39192 | 127.55635 | 9454 ft | 290 kts | 331° |
| 2026-04-21 03:47 | 26.40971 | 127.54537 | 10176 ft | 295 kts | 334° |
| 2026-04-21 03:47 | 26.42952 | 127.53772 | 10549 ft | 313 kts | 349° |
| 2026-04-21 03:47 | 26.45202 | 127.53684 | 10751 ft | 335 kts | 7° |
| 2026-04-21 03:48 | 26.47476 | 127.54386 | 11250 ft | 344 kts | 20° |
| 2026-04-21 03:48 | 26.49736 | 127.55342 | 11847 ft | 351 kts | 20° |
| 2026-04-21 03:48 | 26.52043 | 127.56302 | 12418 ft | 357 kts | 19° |
| 2026-04-21 03:48 | 26.53595 | 127.56943 | 12784 ft | 361 kts | 19° |
| 2026-04-21 03:49 | 26.55968 | 127.57922 | 13379 ft | 366 kts | 19° |
| 2026-04-21 03:49 | 26.58366 | 127.58912 | 13986 ft | 369 kts | 19° |
| 2026-04-21 03:49 | 26.60787 | 127.59911 | 14567 ft | 373 kts | 19° |
| 2026-04-21 03:49 | 26.63239 | 127.60925 | 15125 ft | 377 kts | 19° |
| 2026-04-21 03:50 | 26.65709 | 127.61951 | 15681 ft | 381 kts | 18° |
| 2026-04-21 03:50 | 26.68206 | 127.62991 | 16222 ft | 385 kts | 18° |
| 2026-04-21 03:50 | 26.70724 | 127.64039 | 16768 ft | 389 kts | 18° |
| 2026-04-21 03:50 | 26.73276 | 127.65103 | 17292 ft | 393 kts | 18° |
| 2026-04-21 03:51 | 26.75845 | 127.66172 | 17801 ft | 397 kts | 18° |
| 2026-04-21 03:51 | 26.78448 | 127.67257 | 18312 ft | 400 kts | 18° |
| 2026-04-21 03:51 | 26.81070 | 127.68346 | 18831 ft | 404 kts | 17° |
| 2026-04-21 03:51 | 26.83712 | 127.69443 | 19331 ft | 407 kts | 17° |
| 2026-04-21 03:52 | 26.86381 | 127.70549 | 19834 ft | 411 kts | 17° |
| 2026-04-21 03:52 | 26.89077 | 127.71669 | 20316 ft | 415 kts | 17° |
| 2026-04-21 03:52 | 26.91788 | 127.72801 | 20795 ft | 418 kts | 17° |
| 2026-04-21 03:52 | 26.94524 | 127.73948 | 21252 ft | 421 kts | 17° |
| 2026-04-21 03:53 | 26.97276 | 127.75103 | 21697 ft | 424 kts | 17° |
| 2026-04-21 03:53 | 27.00014 | 127.76250 | 22118 ft | 427 kts | 16° |
| 2026-04-21 03:53 | 27.02808 | 127.77414 | 22542 ft | 430 kts | 16° |
| 2026-04-21 03:53 | 27.05621 | 127.78586 | 22958 ft | 433 kts | 16° |
| 2026-04-21 03:54 | 27.08459 | 127.79772 | 23361 ft | 436 kts | 16° |
| 2026-04-21 03:54 | 27.11314 | 127.80968 | 23767 ft | 439 kts | 16° |
| 2026-04-21 03:54 | 27.14189 | 127.82170 | 24155 ft | 442 kts | 16° |
| 2026-04-21 03:54 | 27.17060 | 127.83444 | 24545 ft | 448 kts | 21° |
| 2026-04-21 03:55 | 27.19777 | 127.85208 | 24929 ft | 455 kts | 32° |
| 2026-04-21 03:55 | 27.22221 | 127.87507 | 25321 ft | 462 kts | 43° |
| 2026-04-21 03:55 | 27.24461 | 127.90105 | 25741 ft | 463 kts | 43° |
| 2026-04-21 03:55 | 27.26711 | 127.92704 | 26152 ft | 465 kts | 43° |
| 2026-04-21 03:56 | 27.28974 | 127.95308 | 26523 ft | 467 kts | 43° |
| 2026-04-21 03:56 | 27.31249 | 127.97919 | 26893 ft | 469 kts | 42° |
| 2026-04-21 03:56 | 27.33535 | 128.00546 | 27276 ft | 470 kts | 42° |
| 2026-04-21 03:56 | 27.35823 | 128.03181 | 27645 ft | 472 kts | 42° |
| 2026-04-21 03:57 | 27.38117 | 128.05832 | 28007 ft | 473 kts | 42° |
| 2026-04-21 03:57 | 27.40412 | 128.08492 | 28390 ft | 475 kts | 42° |
| 2026-04-21 03:57 | 27.42715 | 128.11164 | 28782 ft | 476 kts | 42° |
| 2026-04-21 03:57 | 27.44995 | 128.13809 | 29162 ft | 478 kts | 42° |
| 2026-04-21 03:58 | 27.47229 | 128.16600 | 29531 ft | 483 kts | 49° |
| 2026-04-21 03:58 | 27.49299 | 128.19582 | 29894 ft | 484 kts | 49° |
| 2026-04-21 03:58 | 27.51377 | 128.22575 | 30246 ft | 486 kts | 49° |
| 2026-04-21 03:58 | 27.53466 | 128.25582 | 30593 ft | 488 kts | 48° |
| 2026-04-21 03:59 | 27.55566 | 128.28599 | 30903 ft | 491 kts | 49° |
| 2026-04-21 03:59 | 27.57674 | 128.31631 | 31278 ft | 491 kts | 49° |
| 2026-04-21 03:59 | 27.59776 | 128.34663 | 31722 ft | 491 kts | 49° |
| 2026-04-21 04:00 | 27.63978 | 128.40731 | 32537 ft | 491 kts | 49° |
| 2026-04-21 04:00 | 27.66076 | 128.43763 | 32940 ft | 491 kts | 49° |
| 2026-04-21 04:00 | 27.68177 | 128.46801 | 33328 ft | 491 kts | 49° |
| 2026-04-21 04:00 | 27.70275 | 128.49838 | 33717 ft | 491 kts | 49° |
| 2026-04-21 04:01 | 27.72373 | 128.52874 | 34108 ft | 491 kts | 49° |
| 2026-04-21 04:01 | 27.74473 | 128.55915 | 34497 ft | 491 kts | 49° |
| 2026-04-21 04:01 | 27.76570 | 128.58954 | 34861 ft | 491 kts | 49° |
| 2026-04-21 04:01 | 27.78668 | 128.61998 | 35203 ft | 491 kts | 49° |
| 2026-04-21 04:02 | 27.80765 | 128.65040 | 35532 ft | 491 kts | 49° |
| 2026-04-21 04:02 | 27.82834 | 128.68043 | 35846 ft | 491 kts | 49° |
| 2026-04-21 04:02 | 27.84956 | 128.71126 | 36163 ft | 491 kts | 49° |
| 2026-04-21 04:02 | 27.87024 | 128.74133 | 36449 ft | 491 kts | 49° |
| 2026-04-21 04:03 | 27.89149 | 128.77225 | 36741 ft | 491 kts | 49° |
| 2026-04-21 04:03 | 27.91245 | 128.80280 | 36990 ft | 492 kts | 49° |
| 2026-04-21 04:03 | 27.93312 | 128.83298 | 37051 ft | 492 kts | 49° |
| 2026-04-21 04:04 | 27.97484 | 128.89403 | 37053 ft | 489 kts | 49° |
| 2026-04-21 04:04 | 28.01646 | 128.95477 | 37057 ft | 488 kts | 49° |
| 2026-04-21 04:05 | 28.05811 | 129.01557 | 37053 ft | 489 kts | 49° |
| 2026-04-21 04:05 | 28.09976 | 129.07650 | 37055 ft | 489 kts | 49° |
| 2026-04-21 04:06 | 28.14133 | 129.13762 | 37058 ft | 490 kts | 49° |
| 2026-04-21 04:06 | 28.18292 | 129.19879 | 37065 ft | 490 kts | 49° |
| 2026-04-21 04:07 | 28.22452 | 129.25998 | 37067 ft | 490 kts | 49° |
| 2026-04-21 04:07 | 28.26606 | 129.32130 | 37069 ft | 490 kts | 49° |
| 2026-04-21 04:08 | 28.30766 | 129.38257 | 37068 ft | 490 kts | 49° |
| 2026-04-21 04:08 | 28.34894 | 129.44354 | 37065 ft | 490 kts | 49° |
| 2026-04-21 04:09 | 28.39044 | 129.50503 | 37065 ft | 490 kts | 49° |
| 2026-04-21 04:09 | 28.43188 | 129.56658 | 37067 ft | 490 kts | 50° |
| 2026-04-21 04:10 | 28.46801 | 129.63258 | 37067 ft | 493 kts | 58° |
| 2026-04-21 04:10 | 28.50178 | 129.70035 | 37067 ft | 493 kts | 58° |
| 2026-04-21 04:11 | 28.53552 | 129.76820 | 37065 ft | 493 kts | 58° |
| 2026-04-21 04:11 | 28.56921 | 129.83612 | 37065 ft | 493 kts | 58° |
| 2026-04-21 04:12 | 28.60301 | 129.90411 | 37067 ft | 494 kts | 58° |
| 2026-04-21 04:12 | 28.63679 | 129.97214 | 37067 ft | 494 kts | 58° |
| 2026-04-21 04:13 | 28.67055 | 130.04034 | 37064 ft | 495 kts | 58° |
| 2026-04-21 04:13 | 28.70404 | 130.10820 | 37070 ft | 495 kts | 58° |
| 2026-04-21 04:14 | 28.73772 | 130.17658 | 37070 ft | 496 kts | 58° |
| 2026-04-21 04:14 | 28.77153 | 130.24511 | 37072 ft | 496 kts | 58° |
| 2026-04-21 04:15 | 28.80528 | 130.31369 | 37071 ft | 496 kts | 58° |
| 2026-04-21 04:15 | 28.83893 | 130.38246 | 37055 ft | 501 kts | 58° |
| 2026-04-21 04:16 | 28.87335 | 130.45283 | 37054 ft | 513 kts | 58° |
| 2026-04-21 04:16 | 28.90826 | 130.52424 | 37053 ft | 516 kts | 58° |
| 2026-04-21 04:17 | 28.94320 | 130.59573 | 37055 ft | 516 kts | 58° |
| 2026-04-21 04:17 | 28.97791 | 130.66689 | 37054 ft | 517 kts | 58° |
| 2026-04-21 04:18 | 29.01281 | 130.73868 | 37051 ft | 517 kts | 58° |
| 2026-04-21 04:18 | 29.04777 | 130.81062 | 37056 ft | 517 kts | 58° |
| 2026-04-21 04:19 | 29.08261 | 130.88257 | 37055 ft | 518 kts | 58° |
| 2026-04-21 04:19 | 29.11745 | 130.95465 | 37057 ft | 518 kts | 58° |
| 2026-04-21 04:20 | 29.15227 | 131.02674 | 37061 ft | 518 kts | 58° |
| 2026-04-21 04:20 | 29.18704 | 131.09894 | 37055 ft | 518 kts | 58° |
| 2026-04-21 04:21 | 29.22185 | 131.17129 | 37058 ft | 519 kts | 58° |
| 2026-04-21 04:21 | 29.25659 | 131.24366 | 37057 ft | 519 kts | 58° |
| 2026-04-21 04:22 | 29.29119 | 131.31565 | 37061 ft | 520 kts | 58° |
| 2026-04-21 04:22 | 29.32598 | 131.38825 | 37058 ft | 520 kts | 58° |
| 2026-04-21 04:23 | 29.36072 | 131.46101 | 37060 ft | 521 kts | 58° |
| 2026-04-21 04:23 | 29.39548 | 131.53397 | 37062 ft | 522 kts | 58° |
| 2026-04-21 04:24 | 29.43022 | 131.60707 | 37069 ft | 522 kts | 58° |
| 2026-04-21 04:24 | 29.46494 | 131.68023 | 37071 ft | 522 kts | 58° |
| 2026-04-21 04:25 | 29.49977 | 131.75357 | 37069 ft | 523 kts | 58° |
| 2026-04-21 04:25 | 29.53462 | 131.82708 | 37066 ft | 524 kts | 58° |
| 2026-04-21 04:26 | 29.56936 | 131.90071 | 37065 ft | 524 kts | 58° |
| 2026-04-21 04:26 | 29.60408 | 131.97447 | 37063 ft | 525 kts | 58° |
| 2026-04-21 04:27 | 29.63878 | 132.04820 | 37060 ft | 525 kts | 58° |
| 2026-04-21 04:27 | 29.67940 | 132.11629 | 37058 ft | 517 kts | 45° |
| 2026-04-21 04:28 | 29.72515 | 132.18029 | 37060 ft | 518 kts | 45° |
| 2026-04-21 04:28 | 29.77088 | 132.24431 | 37061 ft | 518 kts | 45° |
| 2026-04-21 04:29 | 29.81652 | 132.30850 | 37063 ft | 518 kts | 45° |
| 2026-04-21 04:29 | 29.86208 | 132.37274 | 37062 ft | 518 kts | 46° |
| 2026-04-21 04:30 | 29.90772 | 132.43706 | 37062 ft | 518 kts | 46° |
| 2026-04-21 04:30 | 29.95329 | 132.50137 | 37064 ft | 518 kts | 46° |
| 2026-04-21 04:31 | 29.99887 | 132.56579 | 37068 ft | 519 kts | 46° |
| 2026-04-21 04:31 | 30.04440 | 132.63032 | 37063 ft | 519 kts | 45° |
| 2026-04-21 04:32 | 30.08990 | 132.69511 | 37060 ft | 519 kts | 45° |
| 2026-04-21 04:32 | 30.13546 | 132.75996 | 37058 ft | 520 kts | 45° |
| 2026-04-21 04:33 | 30.18106 | 132.82482 | 37060 ft | 520 kts | 45° |
| 2026-04-21 04:33 | 30.22644 | 132.88940 | 37061 ft | 521 kts | 45° |
| 2026-04-21 04:34 | 30.27199 | 132.95458 | 37064 ft | 522 kts | 45° |
| 2026-04-21 04:34 | 30.31762 | 133.01993 | 37065 ft | 520 kts | 45° |
| 2026-04-21 04:34 | 30.34005 | 133.05211 | 37013 ft | 508 kts | 45° |
| 2026-04-21 04:35 | 30.36194 | 133.08361 | 37058 ft | 500 kts | 45° |
| 2026-04-21 04:35 | 30.40576 | 133.14648 | 37056 ft | 501 kts | 45° |
| 2026-04-21 04:36 | 30.44964 | 133.20926 | 37053 ft | 501 kts | 45° |
| 2026-04-21 04:36 | 30.49334 | 133.27221 | 37053 ft | 501 kts | 45° |
| 2026-04-21 04:37 | 30.53694 | 133.33525 | 37055 ft | 501 kts | 45° |
| 2026-04-21 04:37 | 30.58062 | 133.39834 | 37059 ft | 502 kts | 45° |
| 2026-04-21 04:38 | 30.62427 | 133.46155 | 37065 ft | 502 kts | 45° |
| 2026-04-21 04:38 | 30.66793 | 133.52491 | 37064 ft | 502 kts | 45° |
| 2026-04-21 04:39 | 30.71131 | 133.58785 | 37066 ft | 502 kts | 45° |
| 2026-04-21 04:39 | 30.75499 | 133.65129 | 37064 ft | 502 kts | 46° |
| 2026-04-21 04:40 | 30.79859 | 133.71480 | 37061 ft | 503 kts | 45° |
| 2026-04-21 04:40 | 30.84221 | 133.77844 | 37060 ft | 503 kts | 45° |
| 2026-04-21 04:41 | 30.88582 | 133.84217 | 37058 ft | 503 kts | 45° |
| 2026-04-21 04:41 | 30.92946 | 133.90592 | 37059 ft | 504 kts | 45° |
| 2026-04-21 04:42 | 30.97308 | 133.96977 | 37054 ft | 504 kts | 45° |
| 2026-04-21 04:42 | 31.01668 | 134.03377 | 37052 ft | 504 kts | 45° |
| 2026-04-21 04:43 | 31.05285 | 134.08702 | 37052 ft | 504 kts | 45° |
| 2026-04-21 04:43 | 31.09640 | 134.15116 | 37050 ft | 504 kts | 45° |
| 2026-04-21 04:44 | 31.14699 | 134.22575 | 37049 ft | 504 kts | 45° |
| 2026-04-21 04:44 | 31.18342 | 134.27958 | 37051 ft | 504 kts | 45° |
| 2026-04-21 04:45 | 31.22692 | 134.34392 | 37054 ft | 504 kts | 45° |
| 2026-04-21 04:45 | 31.27035 | 134.40830 | 37050 ft | 505 kts | 45° |
| 2026-04-21 04:46 | 31.31357 | 134.47239 | 37047 ft | 505 kts | 45° |
| 2026-04-21 04:46 | 31.35707 | 134.53707 | 37050 ft | 506 kts | 45° |
| 2026-04-21 04:47 | 31.40059 | 134.60188 | 37053 ft | 507 kts | 45° |
| 2026-04-21 04:47 | 31.44412 | 134.66674 | 37054 ft | 506 kts | 45° |
| 2026-04-21 04:48 | 31.48754 | 134.73166 | 37054 ft | 506 kts | 45° |
| 2026-04-21 04:48 | 31.53093 | 134.79665 | 37054 ft | 506 kts | 45° |
| 2026-04-21 04:49 | 31.57429 | 134.86164 | 37052 ft | 506 kts | 45° |
| 2026-04-21 04:49 | 31.61765 | 134.92659 | 37053 ft | 506 kts | 45° |